sensor_id;sensor_type;location;lat;lon;timestamp;pressure;altitude;pressure_sealevel;temperature
49785;BMP280;35679;38.732;-121.358;2024-01-06T00:01:30;102003.06;;;16.00
49785;BMP280;35679;38.732;-121.358;2024-01-06T00:04:20;102003.75;;;16.02
49785;BMP280;35679;38.732;-121.358;2024-01-06T00:07:09;102005.91;;;16.07
49785;BMP280;35679;38.732;-121.358;2024-01-06T00:09:58;102009.38;;;16.07
49785;BMP280;35679;38.732;-121.358;2024-01-06T00:12:47;102016.06;;;16.03
49785;BMP280;35679;38.732;-121.358;2024-01-06T00:15:37;102014.22;;;16.04
49785;BMP280;35679;38.732;-121.358;2024-01-06T00:18:27;102023.06;;;16.04
49785;BMP280;35679;38.732;-121.358;2024-01-06T00:21:16;102023.69;;;16.06
49785;BMP280;35679;38.732;-121.358;2024-01-06T00:24:06;102025.72;;;16.04
49785;BMP280;35679;38.732;-121.358;2024-01-06T00:26:55;102022.03;;;16.05
49785;BMP280;35679;38.732;-121.358;2024-01-06T00:29:44;102023.50;;;16.08
49785;BMP280;35679;38.732;-121.358;2024-01-06T00:32:34;102031.34;;;16.09
49785;BMP280;35679;38.732;-121.358;2024-01-06T00:35:26;102018.88;;;16.10
49785;BMP280;35679;38.732;-121.358;2024-01-06T00:38:15;102017.19;;;16.09
49785;BMP280;35679;38.732;-121.358;2024-01-06T00:41:05;102010.06;;;16.09
49785;BMP280;35679;38.732;-121.358;2024-01-06T00:43:54;102010.56;;;16.05
49785;BMP280;35679;38.732;-121.358;2024-01-06T00:46:44;102015.88;;;16.05
49785;BMP280;35679;38.732;-121.358;2024-01-06T00:49:34;102018.38;;;16.06
49785;BMP280;35679;38.732;-121.358;2024-01-06T00:52:23;102012.56;;;16.03
49785;BMP280;35679;38.732;-121.358;2024-01-06T00:55:13;102018.22;;;16.00
49785;BMP280;35679;38.732;-121.358;2024-01-06T00:58:03;102009.56;;;15.98
49785;BMP280;35679;38.732;-121.358;2024-01-06T01:00:53;102010.75;;;15.95
49785;BMP280;35679;38.732;-121.358;2024-01-06T01:03:43;102010.09;;;15.93
49785;BMP280;35679;38.732;-121.358;2024-01-06T01:06:32;102015.56;;;15.92
49785;BMP280;35679;38.732;-121.358;2024-01-06T01:09:22;102009.59;;;15.90
49785;BMP280;35679;38.732;-121.358;2024-01-06T01:12:12;102008.13;;;15.87
49785;BMP280;35679;38.732;-121.358;2024-01-06T01:15:02;102005.63;;;15.86
49785;BMP280;35679;38.732;-121.358;2024-01-06T01:17:52;102003.13;;;15.84
49785;BMP280;35679;38.732;-121.358;2024-01-06T01:20:42;101995.47;;;15.81
49785;BMP280;35679;38.732;-121.358;2024-01-06T01:23:32;101993.81;;;15.80
49785;BMP280;35679;38.732;-121.358;2024-01-06T01:26:21;101994.81;;;15.79
49785;BMP280;35679;38.732;-121.358;2024-01-06T01:29:10;101991.50;;;15.77
49785;BMP280;35679;38.732;-121.358;2024-01-06T01:32:00;101989.84;;;15.76
49785;BMP280;35679;38.732;-121.358;2024-01-06T01:34:49;101982.03;;;15.75
49785;BMP280;35679;38.732;-121.358;2024-01-06T01:37:39;101987.53;;;15.74
49785;BMP280;35679;38.732;-121.358;2024-01-06T01:40:28;101983.19;;;15.73
49785;BMP280;35679;38.732;-121.358;2024-01-06T01:43:18;101987.69;;;15.72
49785;BMP280;35679;38.732;-121.358;2024-01-06T01:46:08;101986.03;;;15.71
49785;BMP280;35679;38.732;-121.358;2024-01-06T01:48:58;101983.53;;;15.70
49785;BMP280;35679;38.732;-121.358;2024-01-06T01:51:48;101987.19;;;15.69
49785;BMP280;35679;38.732;-121.358;2024-01-06T01:54:38;101979.38;;;15.67
49785;BMP280;35679;38.732;-121.358;2024-01-06T01:57:28;101981.38;;;15.65
49785;BMP280;35679;38.732;-121.358;2024-01-06T02:00:18;101974.41;;;15.64
49785;BMP280;35679;38.732;-121.358;2024-01-06T02:03:09;101972.56;;;15.65
49785;BMP280;35679;38.732;-121.358;2024-01-06T02:06:01;101977.25;;;15.63
49785;BMP280;35679;38.732;-121.358;2024-01-06T02:08:50;101973.91;;;15.61
49785;BMP280;35679;38.732;-121.358;2024-01-06T02:11:40;101980.91;;;15.62
49785;BMP280;35679;38.732;-121.358;2024-01-06T02:14:30;101984.53;;;15.61
49785;BMP280;35679;38.732;-121.358;2024-01-06T02:17:21;101970.56;;;15.59
49785;BMP280;35679;38.732;-121.358;2024-01-06T02:20:11;101976.06;;;15.57
49785;BMP280;35679;38.732;-121.358;2024-01-06T02:23:01;101979.91;;;15.55
49785;BMP280;35679;38.732;-121.358;2024-01-06T02:25:53;101979.91;;;15.55
49785;BMP280;35679;38.732;-121.358;2024-01-06T02:28:43;101967.59;;;15.54
49785;BMP280;35679;38.732;-121.358;2024-01-06T02:31:37;101968.59;;;15.53
49785;BMP280;35679;38.732;-121.358;2024-01-06T02:34:26;101959.97;;;15.51
49785;BMP280;35679;38.732;-121.358;2024-01-06T02:37:16;101966.28;;;15.50
49785;BMP280;35679;38.732;-121.358;2024-01-06T02:40:08;101965.63;;;15.48
49785;BMP280;35679;38.732;-121.358;2024-01-06T02:42:58;101964.78;;;15.47
49785;BMP280;35679;38.732;-121.358;2024-01-06T02:45:48;101964.94;;;15.46
49785;BMP280;35679;38.732;-121.358;2024-01-06T02:48:38;101969.59;;;15.44
49785;BMP280;35679;38.732;-121.358;2024-01-06T02:51:27;101968.78;;;15.43
49785;BMP280;35679;38.732;-121.358;2024-01-06T02:54:17;101973.41;;;15.41
49785;BMP280;35679;38.732;-121.358;2024-01-06T02:57:06;101971.75;;;15.40
49785;BMP280;35679;38.732;-121.358;2024-01-06T02:59:56;101963.94;;;15.39
49785;BMP280;35679;38.732;-121.358;2024-01-06T03:02:45;101972.91;;;15.38
49785;BMP280;35679;38.732;-121.358;2024-01-06T03:05:35;101969.63;;;15.36
49785;BMP280;35679;38.732;-121.358;2024-01-06T03:08:25;101965.28;;;15.35
49785;BMP280;35679;38.732;-121.358;2024-01-06T03:11:15;101967.44;;;15.31
49785;BMP280;35679;38.732;-121.358;2024-01-06T03:14:05;101977.28;;;15.31
49785;BMP280;35679;38.732;-121.358;2024-01-06T03:16:54;101964.16;;;15.29
49785;BMP280;35679;38.732;-121.358;2024-01-06T03:19:48;101977.59;;;15.28
49785;BMP280;35679;38.732;-121.358;2024-01-06T03:22:38;101983.94;;;15.27
49785;BMP280;35679;38.732;-121.358;2024-01-06T03:25:27;101972.63;;;15.25
49785;BMP280;35679;38.732;-121.358;2024-01-06T03:28:17;101989.56;;;15.24
49785;BMP280;35679;38.732;-121.358;2024-01-06T03:31:07;101987.75;;;15.24
49785;BMP280;35679;38.732;-121.358;2024-01-06T03:33:56;101982.56;;;15.23
49785;BMP280;35679;38.732;-121.358;2024-01-06T03:36:46;101977.44;;;15.21
49785;BMP280;35679;38.732;-121.358;2024-01-06T03:39:35;101971.56;;;15.18
49785;BMP280;35679;38.732;-121.358;2024-01-06T03:42:24;101968.91;;;15.18
49785;BMP280;35679;38.732;-121.358;2024-01-06T03:45:14;101958.63;;;15.15
49785;BMP280;35679;38.732;-121.358;2024-01-06T03:48:04;101965.63;;;15.16
49785;BMP280;35679;38.732;-121.358;2024-01-06T03:50:54;101971.06;;;15.14
49785;BMP280;35679;38.732;-121.358;2024-01-06T03:53:43;101977.25;;;15.15
49785;BMP280;35679;38.732;-121.358;2024-01-06T03:56:33;101974.91;;;15.12
49785;BMP280;35679;38.732;-121.358;2024-01-06T03:59:22;101986.69;;;15.09
49785;BMP280;35679;38.732;-121.358;2024-01-06T04:02:12;101985.88;;;15.09
49785;BMP280;35679;38.732;-121.358;2024-01-06T04:05:02;101980.72;;;15.07
49785;BMP280;35679;38.732;-121.358;2024-01-06T04:07:54;101993.34;;;15.06
49785;BMP280;35679;38.732;-121.358;2024-01-06T04:10:43;101990.84;;;15.04
49785;BMP280;35679;38.732;-121.358;2024-01-06T04:13:33;101974.91;;;15.04
49785;BMP280;35679;38.732;-121.358;2024-01-06T04:16:22;101982.19;;;15.02
49785;BMP280;35679;38.732;-121.358;2024-01-06T04:19:12;101992.19;;;15.00
49785;BMP280;35679;38.732;-121.358;2024-01-06T04:22:01;101993.19;;;14.99
49785;BMP280;35679;38.732;-121.358;2024-01-06T04:24:51;101998.50;;;14.99
49785;BMP280;35679;38.732;-121.358;2024-01-06T04:27:41;101998.81;;;14.96
49785;BMP280;35679;38.732;-121.358;2024-01-06T04:30:30;101998.00;;;14.96
49785;BMP280;35679;38.732;-121.358;2024-01-06T04:33:20;102002.63;;;14.94
49785;BMP280;35679;38.732;-121.358;2024-01-06T04:36:10;102002.78;;;14.92
49785;BMP280;35679;38.732;-121.358;2024-01-06T04:39:00;101994.81;;;14.92
49785;BMP280;35679;38.732;-121.358;2024-01-06T04:41:49;101992.34;;;14.91
49785;BMP280;35679;38.732;-121.358;2024-01-06T04:44:39;101998.63;;;14.90
49785;BMP280;35679;38.732;-121.358;2024-01-06T04:47:29;102005.97;;;14.88
49785;BMP280;35679;38.732;-121.358;2024-01-06T04:50:19;101997.47;;;14.84
49785;BMP280;35679;38.732;-121.358;2024-01-06T04:53:09;101992.16;;;14.84
49785;BMP280;35679;38.732;-121.358;2024-01-06T04:55:58;101986.19;;;14.82
49785;BMP280;35679;38.732;-121.358;2024-01-06T04:58:48;101993.31;;;14.82
49785;BMP280;35679;38.732;-121.358;2024-01-06T05:01:37;101997.97;;;14.80
49785;BMP280;35679;38.732;-121.358;2024-01-06T05:04:26;102001.59;;;14.79
49785;BMP280;35679;38.732;-121.358;2024-01-06T05:07:16;102006.09;;;14.78
49785;BMP280;35679;38.732;-121.358;2024-01-06T05:10:05;102001.94;;;14.76
49785;BMP280;35679;38.732;-121.358;2024-01-06T05:12:55;102004.78;;;14.74
49785;BMP280;35679;38.732;-121.358;2024-01-06T05:15:45;102003.09;;;14.73
49785;BMP280;35679;38.732;-121.358;2024-01-06T05:18:34;102001.44;;;14.72
49785;BMP280;35679;38.732;-121.358;2024-01-06T05:21:24;101999.78;;;14.71
49785;BMP280;35679;38.732;-121.358;2024-01-06T05:24:14;102004.44;;;14.69
49785;BMP280;35679;38.732;-121.358;2024-01-06T05:27:04;102004.56;;;14.68
49785;BMP280;35679;38.732;-121.358;2024-01-06T05:29:56;101995.94;;;14.66
49785;BMP280;35679;38.732;-121.358;2024-01-06T05:32:45;101996.94;;;14.65
49785;BMP280;35679;38.732;-121.358;2024-01-06T05:35:35;101997.94;;;14.64
49785;BMP280;35679;38.732;-121.358;2024-01-06T05:38:25;101998.09;;;14.62
49785;BMP280;35679;38.732;-121.358;2024-01-06T05:41:14;102001.72;;;14.61
49785;BMP280;35679;38.732;-121.358;2024-01-06T05:44:04;101997.41;;;14.60
49785;BMP280;35679;38.732;-121.358;2024-01-06T05:46:53;101992.25;;;14.59
49785;BMP280;35679;38.732;-121.358;2024-01-06T05:49:43;102001.38;;;14.56
49785;BMP280;35679;38.732;-121.358;2024-01-06T05:52:33;101994.41;;;14.55
49785;BMP280;35679;38.732;-121.358;2024-01-06T05:55:22;101995.41;;;14.54
49785;BMP280;35679;38.732;-121.358;2024-01-06T05:58:12;101995.56;;;14.53
49785;BMP280;35679;38.732;-121.358;2024-01-06T06:01:02;101994.75;;;14.52
49785;BMP280;35679;38.732;-121.358;2024-01-06T06:03:52;101990.41;;;14.51
49785;BMP280;35679;38.732;-121.358;2024-01-06T06:06:42;101982.63;;;14.50
49785;BMP280;35679;38.732;-121.358;2024-01-06T06:09:31;101990.75;;;14.48
49785;BMP280;35679;38.732;-121.358;2024-01-06T06:12:23;101989.91;;;14.48
49785;BMP280;35679;38.732;-121.358;2024-01-06T06:15:12;101979.44;;;14.46
49785;BMP280;35679;38.732;-121.358;2024-01-06T06:18:02;101984.75;;;14.46
49785;BMP280;35679;38.732;-121.358;2024-01-06T06:20:52;101982.44;;;14.43
49785;BMP280;35679;38.732;-121.358;2024-01-06T06:23:41;101991.41;;;14.43
49785;BMP280;35679;38.732;-121.358;2024-01-06T06:26:31;101993.19;;;14.42
49785;BMP280;35679;38.732;-121.358;2024-01-06T06:29:21;101997.69;;;14.42
49785;BMP280;35679;38.732;-121.358;2024-01-06T06:32:10;101996.03;;;14.41
49785;BMP280;35679;38.732;-121.358;2024-01-06T06:35:00;102004.16;;;14.39
49785;BMP280;35679;38.732;-121.358;2024-01-06T06:37:50;102010.47;;;14.38
49785;BMP280;35679;38.732;-121.358;2024-01-06T06:40:40;102021.25;;;14.37
49785;BMP280;35679;38.732;-121.358;2024-01-06T06:43:29;102012.59;;;14.35
49785;BMP280;35679;38.732;-121.358;2024-01-06T06:46:19;102014.59;;;14.33
49785;BMP280;35679;38.732;-121.358;2024-01-06T06:49:09;102026.03;;;14.33
49785;BMP280;35679;38.732;-121.358;2024-01-06T06:51:59;102020.72;;;14.33
49785;BMP280;35679;38.732;-121.358;2024-01-06T06:54:48;102010.28;;;14.32
49785;BMP280;35679;38.732;-121.358;2024-01-06T06:57:38;101992.84;;;14.29
49785;BMP280;35679;38.732;-121.358;2024-01-06T07:00:28;101982.38;;;14.28
49785;BMP280;35679;38.732;-121.358;2024-01-06T07:03:18;101979.72;;;14.28
49785;BMP280;35679;38.732;-121.358;2024-01-06T07:06:08;101971.09;;;14.26
49785;BMP280;35679;38.732;-121.358;2024-01-06T07:08:57;101968.44;;;14.26
49785;BMP280;35679;38.732;-121.358;2024-01-06T07:11:46;101970.25;;;14.25
49785;BMP280;35679;38.732;-121.358;2024-01-06T07:14:35;101967.75;;;14.24
49785;BMP280;35679;38.732;-121.358;2024-01-06T07:17:26;101958.16;;;14.23
49785;BMP280;35679;38.732;-121.358;2024-01-06T07:20:15;101961.78;;;14.22
49785;BMP280;35679;38.732;-121.358;2024-01-06T07:23:04;101959.44;;;14.19
49785;BMP280;35679;38.732;-121.358;2024-01-06T07:25:55;101956.78;;;14.19
49785;BMP280;35679;38.732;-121.358;2024-01-06T07:28:44;101953.31;;;14.18
49785;BMP280;35679;38.732;-121.358;2024-01-06T07:31:34;101949.84;;;14.18
49785;BMP280;35679;38.732;-121.358;2024-01-06T07:34:23;101947.31;;;14.16
49785;BMP280;35679;38.732;-121.358;2024-01-06T07:37:14;101947.47;;;14.15
49785;BMP280;35679;38.732;-121.358;2024-01-06T07:40:04;101955.28;;;14.16
49785;BMP280;35679;38.732;-121.358;2024-01-06T07:42:54;101953.78;;;14.14
49785;BMP280;35679;38.732;-121.358;2024-01-06T07:45:44;101946.81;;;14.13
49785;BMP280;35679;38.732;-121.358;2024-01-06T07:48:34;101940.66;;;14.12
49785;BMP280;35679;38.732;-121.358;2024-01-06T07:51:24;101938.00;;;14.12
49785;BMP280;35679;38.732;-121.358;2024-01-06T07:54:13;101933.16;;;14.08
49785;BMP280;35679;38.732;-121.358;2024-01-06T07:57:03;101936.66;;;14.08
49785;BMP280;35679;38.732;-121.358;2024-01-06T07:59:52;101936.81;;;14.07
49785;BMP280;35679;38.732;-121.358;2024-01-06T08:02:42;101950.91;;;14.07
49785;BMP280;35679;38.732;-121.358;2024-01-06T08:05:31;101944.78;;;14.07
49785;BMP280;35679;38.732;-121.358;2024-01-06T08:08:21;101940.63;;;14.04
49785;BMP280;35679;38.732;-121.358;2024-01-06T08:11:11;101936.13;;;14.05
49785;BMP280;35679;38.732;-121.358;2024-01-06T08:14:00;101937.28;;;14.02
49785;BMP280;35679;38.732;-121.358;2024-01-06T08:16:50;101951.38;;;14.03
49785;BMP280;35679;38.732;-121.358;2024-01-06T08:19:39;101955.19;;;14.00
49785;BMP280;35679;38.732;-121.358;2024-01-06T08:22:33;101948.22;;;13.99
49785;BMP280;35679;38.732;-121.358;2024-01-06T08:25:22;101950.88;;;13.99
49785;BMP280;35679;38.732;-121.358;2024-01-06T08:28:12;101946.41;;;14.00
49785;BMP280;35679;38.732;-121.358;2024-01-06T08:31:03;101950.88;;;13.99
49785;BMP280;35679;38.732;-121.358;2024-01-06T08:33:52;101943.06;;;13.98
49785;BMP280;35679;38.732;-121.358;2024-01-06T08:36:42;101950.19;;;13.97
49785;BMP280;35679;38.732;-121.358;2024-01-06T08:39:31;101942.41;;;13.96
49785;BMP280;35679;38.732;-121.358;2024-01-06T08:42:21;101943.22;;;13.96
49785;BMP280;35679;38.732;-121.358;2024-01-06T08:45:11;101945.22;;;13.94
49785;BMP280;35679;38.732;-121.358;2024-01-06T08:48:00;101952.34;;;13.94
49785;BMP280;35679;38.732;-121.358;2024-01-06T08:50:49;101950.00;;;13.91
49785;BMP280;35679;38.732;-121.358;2024-01-06T08:53:39;101949.16;;;13.90
49785;BMP280;35679;38.732;-121.358;2024-01-06T08:56:29;101944.88;;;13.89
49785;BMP280;35679;38.732;-121.358;2024-01-06T08:59:19;101936.91;;;13.89
49785;BMP280;35679;38.732;-121.358;2024-01-06T09:02:09;101933.41;;;13.89
49785;BMP280;35679;38.732;-121.358;2024-01-06T09:04:58;101913.84;;;13.90
49785;BMP280;35679;38.732;-121.358;2024-01-06T09:07:47;101917.47;;;13.89
49785;BMP280;35679;38.732;-121.358;2024-01-06T09:10:41;101904.38;;;13.87
49785;BMP280;35679;38.732;-121.358;2024-01-06T09:13:32;101900.06;;;13.86
49785;BMP280;35679;38.732;-121.358;2024-01-06T09:16:21;101889.63;;;13.85
49785;BMP280;35679;38.732;-121.358;2024-01-06T09:19:10;101892.09;;;13.86
49785;BMP280;35679;38.732;-121.358;2024-01-06T09:22:00;101888.63;;;13.86
49785;BMP280;35679;38.732;-121.358;2024-01-06T09:24:50;101891.41;;;13.84
49785;BMP280;35679;38.732;-121.358;2024-01-06T09:27:39;101887.13;;;13.83
49785;BMP280;35679;38.732;-121.358;2024-01-06T09:30:28;101888.94;;;13.83
49785;BMP280;35679;38.732;-121.358;2024-01-06T09:33:18;101899.53;;;13.83
49785;BMP280;35679;38.732;-121.358;2024-01-06T09:36:07;101899.72;;;13.81
49785;BMP280;35679;38.732;-121.358;2024-01-06T09:39:00;101905.69;;;13.83
49785;BMP280;35679;38.732;-121.358;2024-01-06T09:41:49;101908.50;;;13.82
49785;BMP280;35679;38.732;-121.358;2024-01-06T09:44:39;101933.38;;;13.81
49785;BMP280;35679;38.732;-121.358;2024-01-06T09:47:28;101940.50;;;13.80
49785;BMP280;35679;38.732;-121.358;2024-01-06T09:50:22;101923.91;;;13.78
49785;BMP280;35679;38.732;-121.358;2024-01-06T09:53:11;101933.53;;;13.79
49785;BMP280;35679;38.732;-121.358;2024-01-06T09:56:00;101931.88;;;13.78
49785;BMP280;35679;38.732;-121.358;2024-01-06T09:58:50;101939.00;;;13.78
49785;BMP280;35679;38.732;-121.358;2024-01-06T10:01:39;101936.34;;;13.78
49785;BMP280;35679;38.732;-121.358;2024-01-06T10:04:29;101937.31;;;13.77
49785;BMP280;35679;38.732;-121.358;2024-01-06T10:07:18;101945.28;;;13.77
49785;BMP280;35679;38.732;-121.358;2024-01-06T10:10:08;101939.31;;;13.75
49785;BMP280;35679;38.732;-121.358;2024-01-06T10:12:57;101944.63;;;13.75
49785;BMP280;35679;38.732;-121.358;2024-01-06T10:15:46;101941.00;;;13.76
49785;BMP280;35679;38.732;-121.358;2024-01-06T10:18:36;101935.81;;;13.74
49785;BMP280;35679;38.732;-121.358;2024-01-06T10:21:25;101934.47;;;13.71
49785;BMP280;35679;38.732;-121.358;2024-01-06T10:24:14;101931.34;;;13.75
49785;BMP280;35679;38.732;-121.358;2024-01-06T10:27:07;101932.00;;;13.77
49785;BMP280;35679;38.732;-121.358;2024-01-06T10:29:58;101935.00;;;13.74
49785;BMP280;35679;38.732;-121.358;2024-01-06T10:32:49;101934.19;;;13.74
49785;BMP280;35679;38.732;-121.358;2024-01-06T10:35:38;101937.66;;;13.74
49785;BMP280;35679;38.732;-121.358;2024-01-06T10:38:28;101938.63;;;13.73
49785;BMP280;35679;38.732;-121.358;2024-01-06T10:41:17;101932.34;;;13.74
49785;BMP280;35679;38.732;-121.358;2024-01-06T10:44:08;101941.13;;;13.74
49785;BMP280;35679;38.732;-121.358;2024-01-06T10:46:58;101940.47;;;13.73
49785;BMP280;35679;38.732;-121.358;2024-01-06T10:49:48;101944.91;;;13.72
49785;BMP280;35679;38.732;-121.358;2024-01-06T10:52:43;101940.47;;;13.73
49785;BMP280;35679;38.732;-121.358;2024-01-06T10:55:32;101941.44;;;13.72
49785;BMP280;35679;38.732;-121.358;2024-01-06T10:58:22;101937.97;;;13.71
49785;BMP280;35679;38.732;-121.358;2024-01-06T11:01:11;101931.97;;;13.69
49785;BMP280;35679;38.732;-121.358;2024-01-06T11:04:03;101929.34;;;13.69
49785;BMP280;35679;38.732;-121.358;2024-01-06T11:06:55;101928.50;;;13.69
49785;BMP280;35679;38.732;-121.358;2024-01-06T11:10:06;101915.09;;;13.70
49785;BMP280;35679;38.732;-121.358;2024-01-06T11:13:13;101912.59;;;13.69
49785;BMP280;35679;38.732;-121.358;2024-01-06T11:16:03;101909.94;;;13.69
49785;BMP280;35679;38.732;-121.358;2024-01-06T11:18:54;101902.13;;;13.67
49785;BMP280;35679;38.732;-121.358;2024-01-06T11:21:43;101883.56;;;13.67
49785;BMP280;35679;38.732;-121.358;2024-01-06T11:24:38;101894.16;;;13.67
49785;BMP280;35679;38.732;-121.358;2024-01-06T11:27:31;101888.03;;;13.67
49785;BMP280;35679;38.732;-121.358;2024-01-06T11:30:27;101888.84;;;13.67
49785;BMP280;35679;38.732;-121.358;2024-01-06T11:33:18;101887.22;;;13.66
49785;BMP280;35679;38.732;-121.358;2024-01-06T11:36:10;101892.66;;;13.65
49785;BMP280;35679;38.732;-121.358;2024-01-06T11:39:03;101888.22;;;13.65
49785;BMP280;35679;38.732;-121.358;2024-01-06T11:41:53;101878.41;;;13.66
49785;BMP280;35679;38.732;-121.358;2024-01-06T11:44:43;101879.41;;;13.65
49785;BMP280;35679;38.732;-121.358;2024-01-06T11:47:34;101878.88;;;13.61
49785;BMP280;35679;38.732;-121.358;2024-01-06T11:50:24;101871.41;;;13.57
49785;BMP280;35679;38.732;-121.358;2024-01-06T11:53:13;101858.69;;;13.60
49785;BMP280;35679;38.732;-121.358;2024-01-06T11:56:03;101850.72;;;13.60
49785;BMP280;35679;38.732;-121.358;2024-01-06T11:58:53;101841.75;;;13.61
49785;BMP280;35679;38.732;-121.358;2024-01-06T12:01:42;101841.75;;;13.61
49785;BMP280;35679;38.732;-121.358;2024-01-06T12:04:31;101829.50;;;13.60
49785;BMP280;35679;38.732;-121.358;2024-01-06T12:07:21;101837.59;;;13.59
49785;BMP280;35679;38.732;-121.358;2024-01-06T12:10:13;101831.16;;;13.61
49785;BMP280;35679;38.732;-121.358;2024-01-06T12:13:03;101813.59;;;13.60
49785;BMP280;35679;38.732;-121.358;2024-01-06T12:15:53;101818.06;;;13.60
49785;BMP280;35679;38.732;-121.358;2024-01-06T12:18:42;101824.34;;;13.59
49785;BMP280;35679;38.732;-121.358;2024-01-06T12:21:31;101821.69;;;13.59
49785;BMP280;35679;38.732;-121.358;2024-01-06T12:24:29;101833.16;;;13.59
49785;BMP280;35679;38.732;-121.358;2024-01-06T12:27:18;101836.78;;;13.58
49785;BMP280;35679;38.732;-121.358;2024-01-06T12:30:13;101834.47;;;13.55
49785;BMP280;35679;38.732;-121.358;2024-01-06T12:33:05;101838.75;;;13.56
49785;BMP280;35679;38.732;-121.358;2024-01-06T12:35:54;101832.63;;;13.56
49785;BMP280;35679;38.732;-121.358;2024-01-06T12:38:43;101830.16;;;13.54
49785;BMP280;35679;38.732;-121.358;2024-01-06T12:41:32;101821.19;;;13.55
49785;BMP280;35679;38.732;-121.358;2024-01-06T12:44:21;101812.56;;;13.53
49785;BMP280;35679;38.732;-121.358;2024-01-06T12:47:11;101825.50;;;13.56
49785;BMP280;35679;38.732;-121.358;2024-01-06T12:50:00;101819.38;;;13.56
49785;BMP280;35679;38.732;-121.358;2024-01-06T12:52:50;101817.88;;;13.53
49785;BMP280;35679;38.732;-121.358;2024-01-06T12:55:38;101820.53;;;13.53
49785;BMP280;35679;38.732;-121.358;2024-01-06T12:58:28;101818.38;;;13.57
49785;BMP280;35679;38.732;-121.358;2024-01-06T13:01:17;101814.13;;;13.64
49785;BMP280;35679;38.732;-121.358;2024-01-06T13:04:07;101816.94;;;13.70
49785;BMP280;35679;38.732;-121.358;2024-01-06T13:06:56;101803.69;;;13.70
49785;BMP280;35679;38.732;-121.358;2024-01-06T13:09:48;101789.28;;;13.73
49785;BMP280;35679;38.732;-121.358;2024-01-06T13:12:38;101786.09;;;13.77
49785;BMP280;35679;38.732;-121.358;2024-01-06T13:15:27;101783.31;;;13.78
49785;BMP280;35679;38.732;-121.358;2024-01-06T13:18:16;101769.03;;;13.79
49785;BMP280;35679;38.732;-121.358;2024-01-06T13:21:06;101763.25;;;13.84
49785;BMP280;35679;38.732;-121.358;2024-01-06T13:23:55;101762.59;;;13.82
49785;BMP280;35679;38.732;-121.358;2024-01-06T13:26:49;101769.25;;;13.86
49785;BMP280;35679;38.732;-121.358;2024-01-06T13:29:38;101762.09;;;13.86
49785;BMP280;35679;38.732;-121.358;2024-01-06T13:32:29;101757.47;;;13.88
49785;BMP280;35679;38.732;-121.358;2024-01-06T13:35:18;101749.81;;;13.85
49785;BMP280;35679;38.732;-121.358;2024-01-06T13:38:07;101753.00;;;13.89
49785;BMP280;35679;38.732;-121.358;2024-01-06T13:40:57;101768.94;;;13.97
49785;BMP280;35679;38.732;-121.358;2024-01-06T13:43:46;101771.41;;;13.98
49785;BMP280;35679;38.732;-121.358;2024-01-06T13:46:36;101760.28;;;14.03
49785;BMP280;35679;38.732;-121.358;2024-01-06T13:49:25;101749.34;;;13.98
49785;BMP280;35679;38.732;-121.358;2024-01-06T13:52:15;101731.63;;;13.98
49785;BMP280;35679;38.732;-121.358;2024-01-06T13:55:04;101733.41;;;13.98
49785;BMP280;35679;38.732;-121.358;2024-01-06T13:57:54;101727.84;;;14.09
49785;BMP280;35679;38.732;-121.358;2024-01-06T14:00:43;101723.69;;;14.14
49785;BMP280;35679;38.732;-121.358;2024-01-06T14:03:33;101726.03;;;14.09
49785;BMP280;35679;38.732;-121.358;2024-01-06T14:06:22;101734.44;;;14.05
49785;BMP280;35679;38.732;-121.358;2024-01-06T14:09:11;101744.22;;;14.04
49785;BMP280;35679;38.732;-121.358;2024-01-06T14:12:00;101762.31;;;14.01
49785;BMP280;35679;38.732;-121.358;2024-01-06T14:14:49;101772.06;;;14.00
49785;BMP280;35679;38.732;-121.358;2024-01-06T14:17:38;101765.78;;;14.01
49785;BMP280;35679;38.732;-121.358;2024-01-06T14:20:29;101768.44;;;14.01
49785;BMP280;35679;38.732;-121.358;2024-01-06T14:23:20;101764.09;;;14.00
49785;BMP280;35679;38.732;-121.358;2024-01-06T14:26:09;101759.66;;;14.01
49785;BMP280;35679;38.732;-121.358;2024-01-06T14:28:59;101761.31;;;14.02
49785;BMP280;35679;38.732;-121.358;2024-01-06T14:31:48;101756.00;;;14.02
49785;BMP280;35679;38.732;-121.358;2024-01-06T14:34:37;101768.25;;;14.03
49785;BMP280;35679;38.732;-121.358;2024-01-06T14:37:27;101750.19;;;14.06
49785;BMP280;35679;38.732;-121.358;2024-01-06T14:40:16;101747.38;;;14.08
49785;BMP280;35679;38.732;-121.358;2024-01-06T14:43:05;101749.91;;;14.09
49785;BMP280;35679;38.732;-121.358;2024-01-06T14:45:55;101748.06;;;14.10
49785;BMP280;35679;38.732;-121.358;2024-01-06T14:48:44;101750.56;;;14.11
49785;BMP280;35679;38.732;-121.358;2024-01-06T14:51:34;101737.59;;;14.08
49785;BMP280;35679;38.732;-121.358;2024-01-06T14:54:23;101739.13;;;14.11
49785;BMP280;35679;38.732;-121.358;2024-01-06T14:57:12;101733.00;;;14.10
49785;BMP280;35679;38.732;-121.358;2024-01-06T15:00:02;101722.38;;;14.10
49785;BMP280;35679;38.732;-121.358;2024-01-06T15:02:51;101724.00;;;14.11
49785;BMP280;35679;38.732;-121.358;2024-01-06T15:05:40;101723.19;;;14.11
49785;BMP280;35679;38.732;-121.358;2024-01-06T15:08:29;101720.72;;;14.09
49785;BMP280;35679;38.732;-121.358;2024-01-06T15:11:18;101724.88;;;14.12
49785;BMP280;35679;38.732;-121.358;2024-01-06T15:14:07;101705.13;;;14.14
49785;BMP280;35679;38.732;-121.358;2024-01-06T15:16:57;101708.59;;;14.15
49785;BMP280;35679;38.732;-121.358;2024-01-06T15:19:46;101703.28;;;14.15
49785;BMP280;35679;38.732;-121.358;2024-01-06T15:22:36;101690.00;;;14.15
49785;BMP280;35679;38.732;-121.358;2024-01-06T15:25:27;101673.91;;;14.16